Time;durP1;ratioP1;P1;durP2;ratioP2;P2;SDS_P1;SDS_P2;PMS_P1;PMS_P2;Temp;Humidity;BMP_temperature;BMP_pressure;BME280_temperature;BME280_humidity;BME280_pressure;Samples;Min_cycle;Max_cycle;Signal;HPM_P1;HPM_P2
2021/04/25 00:00:06;;;;;;;;;;;;;;;21.65;31.10;98338.88;5028195;28;646;-87
2021/04/25 00:02:35;;;;;;;;;;;;;;;21.75;30.87;98337.84;5012200;28;1310;-86
2021/04/25 00:05:01;;;;;;;;;;;;;;;21.73;30.84;98329.00;5010657;28;881;-86
2021/04/25 00:07:26;;;;;;;;;;;;;;;21.74;30.79;98336.25;5012134;28;1902;-86
2021/04/25 00:09:52;;;;;;;;;;;;;;;21.73;31.12;98333.88;4995553;28;1171;-86
2021/04/25 00:12:17;;;;;;;;;;;;;;;21.53;31.27;98333.88;5029810;28;615;-88
2021/04/25 00:14:43;;;;;;;;;;;;;;;21.58;31.30;98339.03;5012846;28;1157;-87
2021/04/25 00:17:08;;;;;;;;;;;;;;;21.60;31.31;98342.22;5029180;28;926;-86
2021/04/25 00:19:34;;;;;;;;;;;;;;;21.59;31.24;98340.63;5028185;28;1170;-87
2021/04/25 00:22:00;;;;;;;;;;;;;;;21.62;31.22;98334.09;4996944;28;1145;-87
2021/04/25 00:24:25;;;;;;;;;;;;;;;21.62;31.15;98336.94;4995841;28;1041;-87
2021/04/25 00:26:51;;;;;;;;;;;;;;;21.54;31.26;98332.66;5029213;28;1892;-87
2021/04/25 00:29:16;;;;;;;;;;;;;;;21.60;31.17;98336.56;5028438;28;1014;-87
2021/04/25 00:31:42;;;;;;;;;;;;;;;21.54;31.30;98335.47;5012153;28;1104;-86
2021/04/25 00:34:07;;;;;;;;;;;;;;;21.54;31.27;98338.31;5011617;28;1053;-87
2021/04/25 00:36:33;;;;;;;;;;;;;;;21.54;31.24;98335.47;5028541;28;969;-87
2021/04/25 00:38:58;;;;;;;;;;;;;;;21.50;31.18;98337.59;4995117;28;1161;-87
2021/04/25 00:41:24;;;;;;;;;;;;;;;21.47;31.47;98338.47;5012018;28;932;-86
2021/04/25 00:43:49;;;;;;;;;;;;;;;21.51;31.04;98333.53;4994878;28;1117;-86
2021/04/25 00:46:15;;;;;;;;;;;;;;;21.44;31.36;98323.13;5028137;28;1871;-87
2021/04/25 00:48:40;;;;;;;;;;;;;;;21.60;31.11;98330.91;5027031;28;993;-88
2021/04/25 00:51:07;;;;;;;;;;;;;;;21.53;30.93;98331.06;5028204;28;1076;-86
2021/04/25 00:53:32;;;;;;;;;;;;;;;21.53;30.92;98331.06;5010481;28;1267;-87
2021/04/25 00:55:58;;;;;;;;;;;;;;;21.46;30.93;98328.38;5028390;28;846;-86
2021/04/25 00:58:23;;;;;;;;;;;;;;;21.63;30.77;98332.88;5026758;28;576;-86
2021/04/25 01:00:49;;;;;;;;;;;;;;;21.44;31.17;98328.00;5028362;28;909;-88
2021/04/25 01:03:18;;;;;;;;;;;;;;;21.95;30.98;98322.84;5012991;28;1126;-88
2021/04/25 01:05:46;;;;;;;;;;;;;;;22.21;30.74;98319.03;4998083;28;1182;-88
2021/04/25 01:08:12;;;;;;;;;;;;;;;22.48;30.56;98315.91;5013178;28;2162;-89
2021/04/25 01:10:42;;;;;;;;;;;;;;;22.56;30.37;98306.00;4998739;28;1157;-88
2021/04/25 01:13:08;;;;;;;;;;;;;;;22.05;30.52;98304.81;5013549;28;1213;-88
2021/04/25 01:15:37;;;;;;;;;;;;;;;21.82;30.76;98309.38;4996695;28;1172;-88
2021/04/25 01:18:03;;;;;;;;;;;;;;;21.71;31.07;98297.50;4995640;28;1189;-89
2021/04/25 01:20:28;;;;;;;;;;;;;;;21.76;30.70;98302.66;5028445;28;1176;-87
2021/04/25 01:22:56;;;;;;;;;;;;;;;21.64;31.13;98294.81;4995216;28;1071;-87
2021/04/25 01:25:22;;;;;;;;;;;;;;;21.79;30.86;98303.78;4995685;28;1157;-87
2021/04/25 01:27:49;;;;;;;;;;;;;;;21.80;30.85;98297.69;5027956;28;1887;-88
2021/04/25 01:30:17;;;;;;;;;;;;;;;21.73;31.24;98294.22;5010959;28;910;-87
2021/04/25 01:32:43;;;;;;;;;;;;;;;21.66;31.25;98306.50;4996020;28;1271;-87
2021/04/25 01:35:14;;;;;;;;;;;;;;;21.63;31.03;98301.72;4995424;28;1038;-87
2021/04/25 01:37:40;;;;;;;;;;;;;;;21.70;30.99;98301.53;4995574;28;1030;-86
2021/04/25 01:40:06;;;;;;;;;;;;;;;21.65;31.32;98304.91;5011200;28;1310;-88
2021/04/25 01:42:32;;;;;;;;;;;;;;;21.67;31.13;98301.66;5011118;28;673;-87
2021/04/25 01:44:57;;;;;;;;;;;;;;;21.65;31.14;98302.06;5010430;28;929;-87
2021/04/25 01:47:23;;;;;;;;;;;;;;;21.65;31.13;98302.06;4995126;28;1986;-87
2021/04/25 01:49:48;;;;;;;;;;;;;;;21.65;30.98;98299.22;5027321;28;886;-87
2021/04/25 01:52:14;;;;;;;;;;;;;;;21.70;31.13;98301.53;4994897;28;1171;-87
2021/04/25 01:54:39;;;;;;;;;;;;;;;21.59;31.15;98298.16;4994303;28;1177;-86
2021/04/25 01:57:05;;;;;;;;;;;;;;;21.67;31.08;98296.78;4995311;28;1133;-87
2021/04/25 01:59:31;;;;;;;;;;;;;;;21.61;31.16;98301.38;5010275;28;995;-86
2021/04/25 02:01:56;;;;;;;;;;;;;;;21.63;30.95;98293.22;5026803;28;1056;-86
2021/04/25 02:04:22;;;;;;;;;;;;;;;21.65;31.14;98293.56;5010298;28;1160;-86
2021/04/25 02:06:47;;;;;;;;;;;;;;;21.62;31.14;98297.28;5010291;28;1898;-87
2021/04/25 02:09:13;;;;;;;;;;;;;;;21.57;31.08;98297.81;5010326;28;1099;-87
2021/04/25 02:11:38;;;;;;;;;;;;;;;21.60;30.91;98296.91;5011146;28;1240;-88
2021/04/25 02:14:05;;;;;;;;;;;;;;;21.54;30.90;98298.66;4994425;28;1209;-87
2021/04/25 02:16:30;;;;;;;;;;;;;;;21.56;30.86;98290.56;5027637;28;1024;-88
2021/04/25 02:18:56;;;;;;;;;;;;;;;21.55;31.13;98283.28;5011291;28;1290;-87
2021/04/25 02:21:22;;;;;;;;;;;;;;;21.56;30.98;98284.91;5011614;28;1331;-87
2021/04/25 02:23:48;;;;;;;;;;;;;;;21.49;30.79;98290.69;5011194;28;1085;-88
2021/04/25 02:26:13;;;;;;;;;;;;;;;21.58;30.88;98305.06;4995428;28;1882;-87
2021/04/25 02:28:39;;;;;;;;;;;;;;;21.48;30.72;98289.91;4994722;28;1145;-88
2021/04/25 02:31:07;;;;;;;;;;;;;;;21.54;30.98;98295.84;4995545;28;1125;-87
2021/04/25 02:33:35;;;;;;;;;;;;;;;21.44;31.10;98294.03;5011425;28;1195;-87
2021/04/25 02:36:01;;;;;;;;;;;;;;;21.46;30.63;98285.94;4995891;28;1158;-87
2021/04/25 02:38:26;;;;;;;;;;;;;;;21.50;30.61;98292.28;4994539;28;1247;-88
2021/04/25 02:40:52;;;;;;;;;;;;;;;21.53;30.74;98271.59;5011737;28;1191;-87
2021/04/25 02:43:18;;;;;;;;;;;;;;;21.37;30.82;98277.22;5010353;28;924;-87
2021/04/25 02:45:43;;;;;;;;;;;;;;;21.87;30.91;98278.94;5010856;28;929;-87
2021/04/25 02:48:09;;;;;;;;;;;;;;;22.07;30.92;98274.81;5027390;28;1910;-87
2021/04/25 02:50:36;;;;;;;;;;;;;;;22.35;30.72;98281.81;4995248;28;1331;-87
2021/04/25 02:53:02;;;;;;;;;;;;;;;22.09;30.41;98280.03;4995411;28;1055;-87
2021/04/25 02:55:28;;;;;;;;;;;;;;;21.68;30.83;98278.53;4995523;28;1180;-87
2021/04/25 02:57:54;;;;;;;;;;;;;;;21.67;30.70;98274.13;5011673;28;933;-86
2021/04/25 03:00:22;;;;;;;;;;;;;;;21.62;31.10;98271.81;5009957;28;1144;-88
2021/04/25 03:02:48;;;;;;;;;;;;;;;21.67;31.16;98276.16;5028079;28;1070;-88
2021/04/25 03:05:14;;;;;;;;;;;;;;;21.73;30.99;98278.03;5024236;28;1415;-86
2021/04/25 03:07:39;;;;;;;;;;;;;;;21.66;31.29;98272.53;5029004;28;1979;-88
2021/04/25 03:10:06;;;;;;;;;;;;;;;21.63;31.28;98278.25;4995388;28;1189;-88
2021/04/25 03:12:32;;;;;;;;;;;;;;;21.65;31.34;98279.41;5012228;28;1100;-88
2021/04/25 03:14:57;;;;;;;;;;;;;;;21.64;31.39;98280.66;4994993;28;1058;-87
2021/04/25 03:17:23;;;;;;;;;;;;;;;21.61;31.48;98270.22;4995582;28;1102;-88
2021/04/25 03:19:52;;;;;;;;;;;;;;;21.59;31.42;98284.00;4995456;28;1136;-88
2021/04/25 03:22:17;;;;;;;;;;;;;;;21.56;31.26;98280.03;4995740;28;1254;-87
2021/04/25 03:24:43;;;;;;;;;;;;;;;21.52;31.31;98276.47;4994727;28;1061;-87
2021/04/25 03:27:14;;;;;;;;;;;;;;;21.64;31.06;98285.53;5011162;28;1973;-88
2021/04/25 03:29:39;;;;;;;;;;;;;;;21.60;31.52;98291.25;4994991;28;1129;-87
2021/04/25 03:32:11;;;;;;;;;;;;;;;21.62;31.42;98299.31;4995390;28;1033;-88
2021/04/25 03:34:36;;;;;;;;;;;;;;;21.61;31.16;98292.88;5011031;28;1223;-88
2021/04/25 03:37:03;;;;;;;;;;;;;;;21.56;31.17;98290.56;5011107;28;1606;-88
2021/04/25 03:39:32;;;;;;;;;;;;;;;21.58;31.47;98293.75;4994730;28;1107;-88
2021/04/25 03:42:00;;;;;;;;;;;;;;;21.60;31.42;98291.25;4995351;28;1196;-88
2021/04/25 03:44:30;;;;;;;;;;;;;;;21.57;31.37;98300.63;5010551;28;1183;-87
2021/04/25 03:46:58;;;;;;;;;;;;;;;21.46;31.20;98288.75;5011122;28;1969;-88
2021/04/25 03:49:32;;;;;;;;;;;;;;;21.69;31.63;98299.97;4995122;28;1072;-88
2021/04/25 03:51:57;;;;;;;;;;;;;;;22.18;31.02;98296.47;4995118;28;761;-88
2021/04/25 03:54:23;;;;;;;;;;;;;;;22.39;30.73;98300.78;5011397;28;1184;-89
2021/04/25 03:56:48;;;;;;;;;;;;;;;22.16;30.51;98298.91;4995372;28;1168;-89
2021/04/25 03:59:20;;;;;;;;;;;;;;;21.93;30.59;98297.00;4994913;28;1093;-88
2021/04/25 04:01:45;;;;;;;;;;;;;;;21.71;30.92;98291.84;4995317;28;1275;-88
2021/04/25 04:04:12;;;;;;;;;;;;;;;21.67;30.99;98296.78;5010727;28;703;-88
2021/04/25 04:06:37;;;;;;;;;;;;;;;21.64;31.36;98299.69;4995108;28;1883;-88
2021/04/25 04:09:03;;;;;;;;;;;;;;;21.64;31.42;98291.97;4994308;28;1203;-89
2021/04/25 04:11:30;;;;;;;;;;;;;;;21.61;31.35;98292.88;4994574;28;1117;-88
2021/04/25 04:13:55;;;;;;;;;;;;;;;21.72;31.49;98293.44;4994206;28;1172;-88
2021/04/25 04:16:21;;;;;;;;;;;;;;;21.68;31.39;98291.91;4994653;28;1156;-88
2021/04/25 04:18:47;;;;;;;;;;;;;;;21.68;31.28;98295.53;4993648;28;1146;-88
2021/04/25 04:21:17;;;;;;;;;;;;;;;21.69;31.42;98299.16;4994931;28;1084;-89
2021/04/25 04:23:44;;;;;;;;;;;;;;;21.66;31.19;98300.84;5011181;28;747;-88
2021/04/25 04:26:11;;;;;;;;;;;;;;;21.75;31.05;98295.38;5010356;28;1906;-86
2021/04/25 04:28:37;;;;;;;;;;;;;;;21.69;31.42;98297.13;5010240;28;894;-86
2021/04/25 04:31:02;;;;;;;;;;;;;;;21.56;31.43;98301.88;5010732;28;905;-87
2021/04/25 04:33:28;;;;;;;;;;;;;;;21.49;31.89;98307.69;4993530;28;1386;-87
2021/04/25 04:35:54;;;;;;;;;;;;;;;21.51;31.81;98310.88;5010905;28;1090;-86
2021/04/25 04:38:19;;;;;;;;;;;;;;;21.52;31.80;98306.81;4993499;28;1120;-87
2021/04/25 04:40:45;;;;;;;;;;;;;;;21.62;31.56;98310.66;4993513;28;1188;-86
2021/04/25 04:43:14;;;;;;;;;;;;;;;21.62;31.52;98305.78;4993730;28;1167;-87
2021/04/25 04:45:40;;;;;;;;;;;;;;;21.50;31.47;98295.13;4994287;28;1093;-87
2021/04/25 04:48:06;;;;;;;;;;;;;;;21.37;31.92;98297.81;4993579;28;1906;-85
2021/04/25 04:50:31;;;;;;;;;;;;;;;21.59;31.32;98298.16;5027058;28;1054;-86
2021/04/25 04:53:00;;;;;;;;;;;;;;;21.61;31.44;98298.53;4994612;28;1017;-86
2021/04/25 04:55:25;;;;;;;;;;;;;;;21.65;31.23;98301.28;5008774;28;1076;-85
2021/04/25 04:57:55;;;;;;;;;;;;;;;21.56;31.15;98302.69;4992818;28;1322;-86
2021/04/25 05:00:20;;;;;;;;;;;;;;;21.53;31.27;98300.72;5008861;28;1110;-85
2021/04/25 05:02:46;;;;;;;;;;;;;;;21.54;30.77;98290.19;5007775;28;1239;-85
2021/04/25 05:05:12;;;;;;;;;;;;;;;21.65;30.71;98293.56;4992384;28;1187;-86
2021/04/25 05:07:39;;;;;;;;;;;;;;;21.49;30.87;98287.84;5009546;28;1879;-86
2021/04/25 05:10:04;;;;;;;;;;;;;;;21.50;30.66;98292.28;5011348;28;1300;-86
2021/04/25 05:12:30;;;;;;;;;;;;;;;21.57;30.33;98286.47;4996291;28;1131;-85
2021/04/25 05:14:56;;;;;;;;;;;;;;;21.53;30.35;98288.59;5012054;28;1201;-86
2021/04/25 05:17:21;;;;;;;;;;;;;;;21.64;30.62;98283.47;4996154;28;1061;-85
2021/04/25 05:19:47;;;;;;;;;;;;;;;22.01;30.85;98281.41;5028999;28;663;-85
2021/04/25 05:22:12;;;;;;;;;;;;;;;22.32;30.89;98287.56;4995976;28;1137;-87
2021/04/25 05:24:38;;;;;;;;;;;;;;;21.99;30.75;98286.75;4997018;28;1065;-86
2021/04/25 05:27:04;;;;;;;;;;;;;;;21.79;30.75;98281.94;5012921;28;1894;-86
2021/04/25 05:29:29;;;;;;;;;;;;;;;21.70;30.63;98273.22;4995240;28;1192;-86
2021/04/25 05:31:55;;;;;;;;;;;;;;;21.58;30.62;98271.09;5012605;28;1263;-87
2021/04/25 05:34:21;;;;;;;;;;;;;;;21.65;30.98;98279.41;4997067;28;1188;-85
2021/04/25 05:36:46;;;;;;;;;;;;;;;21.51;31.28;98288.25;5029582;28;832;-86
2021/04/25 05:39:18;;;;;;;;;;;;;;;21.49;31.36;98290.69;4996813;28;1117;-87
2021/04/25 05:41:47;;;;;;;;;;;;;;;21.57;31.10;98292.16;5012295;28;1192;-88
2021/04/25 05:44:12;;;;;;;;;;;;;;;21.60;31.20;98291.25;4996910;28;1159;-86
2021/04/25 05:46:38;;;;;;;;;;;;;;;21.52;31.45;98296.28;4996991;28;1944;-86
2021/04/25 05:49:07;;;;;;;;;;;;;;;21.62;31.16;98294.47;4996881;28;1086;-86
2021/04/25 05:51:35;;;;;;;;;;;;;;;21.55;31.38;98283.28;4997653;28;1191;-86
2021/04/25 05:54:03;;;;;;;;;;;;;;;21.52;31.27;98298.31;4993371;28;1316;-86
2021/04/25 05:56:30;;;;;;;;;;;;;;;21.76;30.81;98288.50;5009581;28;1168;-86
2021/04/25 05:59:06;;;;;;;;;;;;;;;21.65;31.17;98287.09;4997196;28;1335;-87
2021/04/25 06:01:31;;;;;;;;;;;;;;;21.60;31.23;98285.59;5013434;28;700;-86
2021/04/25 06:04:00;;;;;;;;;;;;;;;21.65;31.08;98287.91;5012870;28;1207;-86
2021/04/25 06:06:29;;;;;;;;;;;;;;;21.59;30.96;98289.66;5013728;28;1898;-88
2021/04/25 06:08:56;;;;;;;;;;;;;;;21.55;31.30;98295.41;5012173;28;1087;-87
2021/04/25 06:11:21;;;;;;;;;;;;;;;21.60;31.05;98294.09;5012444;28;1209;-87
2021/04/25 06:13:47;;;;;;;;;;;;;;;21.55;30.99;98294.59;4997283;28;1061;-87
2021/04/25 06:16:13;;;;;;;;;;;;;;;21.53;30.85;98303.53;4997212;28;1213;-87
2021/04/25 06:18:38;;;;;;;;;;;;;;;21.42;31.30;98302.97;4997287;28;1109;-86
2021/04/25 06:21:04;;;;;;;;;;;;;;;21.50;31.11;98309.28;5013193;28;1158;-87
2021/04/25 06:23:32;;;;;;;;;;;;;;;21.53;30.94;98314.06;4996598;28;1152;-87
2021/04/25 06:26:03;;;;;;;;;;;;;;;21.46;31.08;98315.03;4997168;28;1094;-87
2021/04/25 06:28:32;;;;;;;;;;;;;;;21.67;30.65;98305.28;5030856;28;1954;-87
2021/04/25 06:31:00;;;;;;;;;;;;;;;21.54;30.69;98310.78;4997951;28;1218;-88
2021/04/25 06:33:25;;;;;;;;;;;;;;;21.73;31.08;98314.06;5012371;28;1269;-86
2021/04/25 06:35:51;;;;;;;;;;;;;;;22.17;30.99;98318.31;4996844;28;1042;-87
2021/04/25 06:38:20;;;;;;;;;;;;;;;22.42;30.81;98323.38;5012536;28;982;-86
2021/04/25 06:40:47;;;;;;;;;;;;;;;22.24;30.56;98323.81;4996300;28;1369;-88
2021/04/25 06:43:12;;;;;;;;;;;;;;;21.82;30.78;98315.06;4999962;28;1231;-87
2021/04/25 06:45:39;;;;;;;;;;;;;;;21.82;30.51;98317.09;5000866;28;1329;-87
2021/04/25 06:48:07;;;;;;;;;;;;;;;21.66;30.79;98334.84;5016877;28;1910;-87
2021/04/25 06:50:33;;;;;;;;;;;;;;;21.71;30.57;98331.50;5033221;28;1243;-87
2021/04/25 06:53:10;;;;;;;;;;;;;;;21.68;30.83;98323.84;5000494;28;1164;-89
2021/04/25 06:55:42;;;;;;;;;;;;;;;21.53;30.85;98319.72;4996883;28;1205;-88
2021/04/25 06:58:07;;;;;;;;;;;;;;;21.59;30.83;98323.63;4998501;28;1472;-86
2021/04/25 07:00:38;;;;;;;;;;;;;;;21.72;30.82;98324.59;5000078;28;1131;-87
2021/04/25 07:03:30;;;;;;;;;;;;;;;21.61;31.07;98332.53;5000893;28;1159;-87
2021/04/25 07:05:56;;;;;;;;;;;;;;;21.57;30.82;98337.44;5015996;28;1147;-87
2021/04/25 07:08:27;;;;;;;;;;;;;;;21.61;30.81;98335.34;4999271;28;1910;-86
2021/04/25 07:10:53;;;;;;;;;;;;;;;21.50;30.68;98337.59;4999471;28;1271;-87
2021/04/25 07:13:19;;;;;;;;;;;;;;;21.44;31.11;98339.34;4999869;28;1297;-86
2021/04/25 07:15:44;;;;;;;;;;;;;;;21.52;30.81;98332.31;5000329;28;1058;-87
2021/04/25 07:18:11;;;;;;;;;;;;;;;21.50;30.59;98343.25;4998251;28;1132;-87
2021/04/25 07:20:37;;;;;;;;;;;;;;;21.56;30.43;98339.50;4999960;28;1049;-87
2021/04/25 07:23:02;;;;;;;;;;;;;;;21.43;30.88;98344.19;4998812;28;1345;-86
2021/04/25 07:25:31;;;;;;;;;;;;;;;21.46;30.83;98332.00;4999114;28;1197;-87
2021/04/25 07:27:58;;;;;;;;;;;;;;;21.55;30.78;98328.56;5015421;28;1977;-86
2021/04/25 07:30:24;;;;;;;;;;;;;;;21.51;31.00;98333.53;4998180;28;1216;-88
2021/04/25 07:32:50;;;;;;;;;;;;;;;21.44;30.67;98316.69;5016693;28;1285;-86
2021/04/25 07:38:18;;;;;;;;;;;;;;;21.74;30.76;98312.81;5023728;28;1218;-86
2021/04/25 07:40:47;;;;;;;;;;;;;;;22.22;30.43;98322.66;4995531;28;1193;-87
2021/04/25 07:43:12;;;;;;;;;;;;;;;22.47;30.22;98320.00;5013832;28;1144;-84
2021/04/25 07:45:38;;;;;;;;;;;;;;;22.17;30.39;98323.97;4999585;28;1156;-86
2021/04/25 07:48:07;;;;;;;;;;;;;;;21.77;30.69;98315.56;5015631;28;1960;-86
2021/04/25 07:50:32;;;;;;;;;;;;;;;21.87;30.11;98321.44;4999006;28;1073;-86
2021/04/25 07:53:01;;;;;;;;;;;;;;;21.75;30.25;98312.34;5014192;28;1147;-88
2021/04/25 07:55:27;;;;;;;;;;;;;;;21.62;30.62;98305.78;5014708;28;1115;-85
2021/04/25 07:57:58;;;;;;;;;;;;;;;21.51;31.18;98306.03;4999046;28;1063;-86
2021/04/25 08:00:24;;;;;;;;;;;;;;;21.61;30.64;98298.53;4998110;28;1136;-86
2021/04/25 08:02:49;;;;;;;;;;;;;;;21.64;30.63;98303.31;5014616;28;826;-87
2021/04/25 08:05:15;;;;;;;;;;;;;;;21.50;31.04;98306.44;4998213;28;1306;-84
2021/04/25 08:07:41;;;;;;;;;;;;;;;21.56;30.65;98301.88;4998324;28;1965;-86
2021/04/25 08:10:07;;;;;;;;;;;;;;;21.44;30.81;98299.69;4997624;28;1182;-86
2021/04/25 08:12:32;;;;;;;;;;;;;;;21.55;30.57;98300.25;4998920;28;1192;-87
2021/04/25 08:15:07;;;;;;;;;;;;;;;21.51;30.66;98299.56;5017586;28;716;-86
2021/04/25 08:17:36;;;;;;;;;;;;;;;21.49;30.92;98299.19;4998302;28;1176;-86
2021/04/25 08:20:04;;;;;;;;;;;;;;;21.51;30.58;98299.56;4995100;28;1118;-87
2021/04/25 08:22:31;;;;;;;;;;;;;;;21.50;30.53;98297.94;4997807;28;1236;-87
2021/04/25 08:24:57;;;;;;;;;;;;;;;21.66;30.41;98298.03;4998704;28;1046;-86
2021/04/25 08:27:30;;;;;;;;;;;;;;;22.08;30.51;98292.59;5000473;28;1891;-87
2021/04/25 08:29:58;;;;;;;;;;;;;;;22.21;30.40;98290.69;4998054;28;1073;-87
2021/04/25 08:32:24;;;;;;;;;;;;;;;22.43;30.07;98281.63;4999849;28;1201;-87
2021/04/25 08:34:49;;;;;;;;;;;;;;;21.92;30.68;98289.75;4998526;28;1208;-86
2021/04/25 08:37:15;;;;;;;;;;;;;;;21.77;30.48;98289.28;4997742;28;1346;-87
2021/04/25 08:39:40;;;;;;;;;;;;;;;21.81;30.24;98284.31;4996694;28;1156;-86
2021/04/25 08:42:06;;;;;;;;;;;;;;;21.69;30.27;98279.34;5014436;28;1129;-86
2021/04/25 08:44:32;;;;;;;;;;;;;;;21.65;30.18;98273.75;5013191;28;705;-86
2021/04/25 08:46:57;;;;;;;;;;;;;;;21.52;30.31;98261.50;4997188;28;1937;-84
2021/04/25 08:49:24;;;;;;;;;;;;;;;21.54;30.30;98264.69;4997338;28;1259;-85
2021/04/25 08:51:53;;;;;;;;;;;;;;;21.64;30.24;98275.00;4993817;28;1086;-87
2021/04/25 08:54:28;;;;;;;;;;;;;;;21.54;30.32;98273.97;4996484;28;1042;-86
2021/04/25 08:56:59;;;;;;;;;;;;;;;21.58;30.27;98279.56;4997888;28;1168;-86
2021/04/25 08:59:27;;;;;;;;;;;;;;;21.59;30.26;98267.00;4998634;28;1168;-85
2021/04/25 09:01:53;;;;;;;;;;;;;;;21.38;30.62;98270.31;5013039;28;1088;-86
2021/04/25 09:04:18;;;;;;;;;;;;;;;21.44;30.94;98249.53;5029488;28;770;-86
2021/04/25 09:07:00;;;;;;;;;;;;;;;22.08;30.51;98259.41;4995922;28;1894;-86
2021/04/25 09:09:40;;;;;;;;;;;;;;;22.32;29.89;98262.84;4996377;28;1201;-86
2021/04/25 09:12:06;;;;;;;;;;;;;;;22.34;29.43;98260.41;4997035;28;1243;-86
2021/04/25 09:14:31;;;;;;;;;;;;;;;22.00;30.04;98251.50;4996878;28;1063;-87
2021/04/25 09:16:59;;;;;;;;;;;;;;;21.84;30.12;98244.56;5013095;28;771;-87
2021/04/25 09:19:44;;;;;;;;;;;;;;;21.65;30.33;98242.59;5029921;28;687;-86
2021/04/25 09:22:10;;;;;;;;;;;;;;;21.61;30.48;98252.44;5012782;28;1159;-86
2021/04/25 09:24:35;;;;;;;;;;;;;;;21.65;30.33;98236.13;4996317;28;1287;-86
2021/04/25 09:27:01;;;;;;;;;;;;;;;21.57;30.43;98252.50;5012644;28;1898;-85
2021/04/25 09:29:45;;;;;;;;;;;;;;;21.62;30.35;98249.16;4996966;28;1230;-86
2021/04/25 09:32:17;;;;;;;;;;;;;;;21.57;30.48;98247.63;4996569;28;1212;-86
2021/04/25 09:34:42;;;;;;;;;;;;;;;21.65;30.47;98236.94;5012632;28;1167;-86
2021/04/25 09:37:12;;;;;;;;;;;;;;;21.52;30.69;98236.84;4996067;28;1173;-86
2021/04/25 09:39:38;;;;;;;;;;;;;;;21.62;30.58;98246.31;4996048;28;1118;-87
2021/04/25 09:42:07;;;;;;;;;;;;;;;21.57;30.23;98241.19;4996148;28;1185;-86
2021/04/25 09:44:33;;;;;;;;;;;;;;;21.54;30.33;98236.38;4996114;28;1188;-87
2021/04/25 09:47:01;;;;;;;;;;;;;;;21.54;30.60;98236.38;5028521;28;1910;-87
2021/04/25 09:49:37;;;;;;;;;;;;;;;21.52;30.61;98227.53;4996160;28;754;-87
2021/04/25 09:52:02;;;;;;;;;;;;;;;21.42;30.60;98239.91;5028166;28;957;-86
2021/04/25 09:54:32;;;;;;;;;;;;;;;21.49;30.55;98242.56;4994578;28;1200;-87
2021/04/25 09:56:58;;;;;;;;;;;;;;;21.39;30.66;98235.09;4995887;28;1232;-85
2021/04/25 09:59:23;;;;;;;;;;;;;;;21.43;30.43;98224.50;4995432;28;1074;-86
2021/04/25 10:01:49;;;;;;;;;;;;;;;21.62;30.28;98231.38;4995071;28;1219;-84
2021/04/25 10:04:31;;;;;;;;;;;;;;;21.61;30.08;98230.56;5010705;28;1396;-86
2021/04/25 10:06:57;;;;;;;;;;;;;;;21.51;30.25;98240.91;4994394;28;1883;-86
2021/04/25 10:09:22;;;;;;;;;;;;;;;21.66;30.47;98235.72;5010768;28;1080;-86
2021/04/25 10:11:48;;;;;;;;;;;;;;;22.09;30.18;98234.69;5012218;28;1207;-87
2021/04/25 10:14:14;;;;;;;;;;;;;;;22.35;29.80;98233.63;4995492;28;1239;-87
2021/04/25 10:16:54;;;;;;;;;;;;;;;22.27;30.04;98232.22;4997858;28;1159;-86
2021/04/25 10:19:22;;;;;;;;;;;;;;;21.84;30.45;98227.59;5031771;28;1199;-86
2021/04/25 10:21:48;;;;;;;;;;;;;;;21.72;30.52;98219.78;5016001;28;1185;-86
2021/04/25 10:24:16;;;;;;;;;;;;;;;21.67;30.03;98228.81;5014237;28;1168;-87
2021/04/25 10:26:52;;;;;;;;;;;;;;;21.70;30.22;98225.06;5015502;28;1906;-85
2021/04/25 10:29:18;;;;;;;;;;;;;;;21.59;30.53;98222.50;5014931;28;1184;-86
2021/04/25 10:31:44;;;;;;;;;;;;;;;21.59;30.31;98213.22;5015262;28;1210;-85
2021/04/25 10:34:29;;;;;;;;;;;;;;;21.53;30.59;98214.97;4998582;28;1136;-85
2021/04/25 10:36:57;;;;;;;;;;;;;;;21.54;30.40;98225.06;5015149;28;1102;-85
2021/04/25 10:39:43;;;;;;;;;;;;;;;21.55;30.56;98220.97;5014581;28;1254;-86
2021/04/25 10:42:20;;;;;;;;;;;;;;;21.55;30.30;98215.31;5014964;28;1253;-85
2021/04/25 10:45:04;;;;;;;;;;;;;;;21.49;30.31;98212.22;5031189;28;719;-86
2021/04/25 10:47:30;;;;;;;;;;;;;;;21.49;30.23;98217.09;5015157;28;1883;-86
2021/04/25 10:49:58;;;;;;;;;;;;;;;21.42;30.06;98220.88;5014355;28;1078;-85
2021/04/25 10:52:31;;;;;;;;;;;;;;;21.43;29.96;98218.84;5014607;28;881;-85
2021/04/25 10:55:12;;;;;;;;;;;;;;;21.37;30.28;98217.78;5014035;28;988;-85
2021/04/25 10:57:49;;;;;;;;;;;;;;;21.84;30.52;98210.59;5014837;28;1080;-85
2021/04/25 11:00:40;;;;;;;;;;;;;;;22.17;30.03;98210.59;5014819;28;1035;-86
2021/04/25 11:03:10;;;;;;;;;;;;;;;22.10;29.77;98200.25;5030997;28;1017;-86
2021/04/25 11:05:39;;;;;;;;;;;;;;;21.96;29.87;98199.78;4994920;28;1184;-85
2021/04/25 11:08:14;;;;;;;;;;;;;;;21.71;30.06;98201.22;5013587;28;1910;-86
2021/04/25 11:10:51;;;;;;;;;;;;;;;21.66;29.90;98186.75;5030557;28;1137;-86
2021/04/25 11:13:35;;;;;;;;;;;;;;;21.65;29.88;98191.63;4998831;28;1295;-86
2021/04/25 11:16:06;;;;;;;;;;;;;;;21.66;29.90;98187.56;5015301;28;1010;-87
2021/04/25 11:18:53;;;;;;;;;;;;;;;21.49;30.31;98188.78;5030671;28;1161;-86
2021/04/25 11:21:52;;;;;;;;;;;;;;;21.56;30.42;98194.28;5014808;28;1439;-86
2021/04/25 11:24:18;;;;;;;;;;;;;;;21.55;30.09;98192.66;5030200;28;914;-87
2021/04/25 11:26:44;;;;;;;;;;;;;;;21.50;30.46;98193.19;5013942;28;1973;-87
2021/04/25 11:29:25;;;;;;;;;;;;;;;21.43;30.40;98184.88;5029209;28;591;-85
2021/04/25 11:34:29;;;;;;;;;;;;;;;21.42;30.53;98186.13;5013862;28;1235;-85
2021/04/25 11:37:14;;;;;;;;;;;;;;;21.98;30.61;98183.16;5030686;28;858;-85
2021/04/25 11:39:43;;;;;;;;;;;;;;;22.36;29.84;98175.69;5030107;28;973;-86
2021/04/25 11:42:12;;;;;;;;;;;;;;;22.34;29.39;98183.84;5030185;28;1046;-85
2021/04/25 11:44:41;;;;;;;;;;;;;;;21.84;30.37;98179.44;4997222;28;1034;-86
2021/04/25 11:47:10;;;;;;;;;;;;;;;21.65;30.06;98174.63;4997552;28;1906;-85
2021/04/25 11:49:37;;;;;;;;;;;;;;;21.51;30.06;98169.34;5013524;28;655;-85
2021/04/25 11:52:06;;;;;;;;;;;;;;;21.53;30.04;98181.00;5029821;28;1076;-85
2021/04/25 11:54:32;;;;;;;;;;;;;;;21.40;30.51;98165.94;5013250;28;1246;-85
2021/04/25 11:57:14;;;;;;;;;;;;;;;21.46;30.02;98164.19;5013732;28;987;-86
2021/04/25 11:59:59;;;;;;;;;;;;;;;21.62;29.94;98155.72;4996817;28;1209;-85
2021/04/25 12:02:26;;;;;;;;;;;;;;;21.56;30.31;98165.97;4997517;28;1045;-86
2021/04/25 12:04:56;;;;;;;;;;;;;;;21.49;30.23;98154.81;5012532;28;1049;-85
2021/04/25 12:07:33;;;;;;;;;;;;;;;21.87;30.43;98154.31;5013708;28;1968;-85
2021/04/25 12:09:59;;;;;;;;;;;;;;;22.31;29.31;98159.22;5013148;28;1117;-84
2021/04/25 12:12:25;;;;;;;;;;;;;;;22.47;29.28;98149.06;4997647;28;1038;-85
2021/04/25 12:15:02;;;;;;;;;;;;;;;21.87;29.68;98143.75;4996712;28;1117;-86
2021/04/25 12:17:30;;;;;;;;;;;;;;;21.73;29.83;98153.41;4996725;28;1002;-86
2021/04/25 12:19:55;;;;;;;;;;;;;;;21.61;30.28;98139.16;5013559;28;1038;-86
2021/04/25 12:22:21;;;;;;;;;;;;;;;21.52;30.10;98148.28;4996982;28;1197;-86
2021/04/25 12:24:46;;;;;;;;;;;;;;;21.56;29.91;98143.31;5012175;28;1064;-85
2021/04/25 12:27:14;;;;;;;;;;;;;;;21.58;30.13;98135.16;5013465;28;1879;-85
2021/04/25 12:29:48;;;;;;;;;;;;;;;21.55;30.12;98136.03;5029242;28;1161;-86
2021/04/25 12:32:21;;;;;;;;;;;;;;;21.56;30.02;98129.97;5013789;28;1159;-68
2021/04/25 12:34:59;;;;;;;;;;;;;;;21.50;30.13;98130.91;5013329;28;663;-86
2021/04/25 12:37:44;;;;;;;;;;;;;;;21.49;30.16;98123.66;4996918;28;1010;-85
2021/04/25 12:40:45;;;;;;;;;;;;;;;21.45;30.43;98117.28;5011782;28;1084;-86
2021/04/25 12:43:10;;;;;;;;;;;;;;;21.44;30.37;98124.19;4966083;29;1181;-86
2021/04/25 12:45:36;;;;;;;;;;;;;;;21.50;30.04;98111.91;5000480;28;1066;-86
2021/04/25 12:48:20;;;;;;;;;;;;;;;21.46;30.11;98121.72;4996276;28;1902;-86
2021/04/25 12:51:05;;;;;;;;;;;;;;;21.46;30.01;98116.06;5012267;28;1029;-85
2021/04/25 12:53:31;;;;;;;;;;;;;;;21.67;30.41;98114.75;5012930;28;1243;-86
2021/04/25 12:55:57;;;;;;;;;;;;;;;22.15;29.92;98113.91;5029006;28;898;-85
2021/04/25 12:58:23;;;;;;;;;;;;;;;22.40;29.25;98106.75;5011397;28;1186;-86
2021/04/25 13:00:49;;;;;;;;;;;;;;;21.99;29.77;98102.56;5012760;28;1072;-87
2021/04/25 13:03:32;;;;;;;;;;;;;;;21.91;30.09;98106.81;4996421;28;1125;-85
2021/04/25 13:05:58;;;;;;;;;;;;;;;21.76;29.88;98107.22;5012780;28;580;-86
2021/04/25 13:08:31;;;;;;;;;;;;;;;21.73;30.23;98101.63;4995490;28;1966;-87